sensor_id;sensor_type;location;lat;lon;timestamp;temperature;humidity
7206;DHT22;3644;53.480;10.004;2023-05-07T00:00:11;11.30;99.90
7206;DHT22;3644;53.480;10.004;2023-05-07T00:02:37;11.30;99.90
7206;DHT22;3644;53.480;10.004;2023-05-07T00:05:03;11.40;99.90
7206;DHT22;3644;53.480;10.004;2023-05-07T00:07:29;11.30;99.90
7206;DHT22;3644;53.480;10.004;2023-05-07T00:09:54;11.40;99.90
7206;DHT22;3644;53.480;10.004;2023-05-07T00:12:20;11.40;99.90
7206;DHT22;3644;53.480;10.004;2023-05-07T00:14:46;11.30;99.90
7206;DHT22;3644;53.480;10.004;2023-05-07T00:17:11;11.20;99.90
7206;DHT22;3644;53.480;10.004;2023-05-07T00:19:37;11.20;99.90
7206;DHT22;3644;53.480;10.004;2023-05-07T00:22:02;11.30;99.90
7206;DHT22;3644;53.480;10.004;2023-05-07T00:24:28;11.20;99.90
7206;DHT22;3644;53.480;10.004;2023-05-07T00:26:53;11.10;99.90
7206;DHT22;3644;53.480;10.004;2023-05-07T00:29:19;11.10;99.90
7206;DHT22;3644;53.480;10.004;2023-05-07T00:31:45;11.20;99.90
7206;DHT22;3644;53.480;10.004;2023-05-07T00:34:10;11.30;99.90
7206;DHT22;3644;53.480;10.004;2023-05-07T00:36:36;11.30;99.90
7206;DHT22;3644;53.480;10.004;2023-05-07T00:39:01;11.30;99.90
7206;DHT22;3644;53.480;10.004;2023-05-07T00:41:29;11.30;99.90
7206;DHT22;3644;53.480;10.004;2023-05-07T00:43:56;11.20;99.90
7206;DHT22;3644;53.480;10.004;2023-05-07T00:46:22;11.20;99.90
7206;DHT22;3644;53.480;10.004;2023-05-07T00:48:50;11.20;99.90
7206;DHT22;3644;53.480;10.004;2023-05-07T00:51:17;11.40;99.90
7206;DHT22;3644;53.480;10.004;2023-05-07T00:53:43;11.30;99.90
7206;DHT22;3644;53.480;10.004;2023-05-07T00:56:09;11.30;99.90
7206;DHT22;3644;53.480;10.004;2023-05-07T00:58:35;11.20;99.90
7206;DHT22;3644;53.480;10.004;2023-05-07T01:01:02;11.20;99.90
7206;DHT22;3644;53.480;10.004;2023-05-07T01:03:27;11.20;99.90
7206;DHT22;3644;53.480;10.004;2023-05-07T01:05:54;11.10;99.90
7206;DHT22;3644;53.480;10.004;2023-05-07T01:08:22;11.10;99.90
7206;DHT22;3644;53.480;10.004;2023-05-07T01:10:48;11.10;99.90
7206;DHT22;3644;53.480;10.004;2023-05-07T01:13:14;11.20;99.90
7206;DHT22;3644;53.480;10.004;2023-05-07T01:15:40;11.20;99.90
7206;DHT22;3644;53.480;10.004;2023-05-07T01:18:08;11.30;99.90
7206;DHT22;3644;53.480;10.004;2023-05-07T01:20:34;11.30;99.90
7206;DHT22;3644;53.480;10.004;2023-05-07T01:23:00;11.20;99.90
7206;DHT22;3644;53.480;10.004;2023-05-07T01:25:26;11.20;99.90
7206;DHT22;3644;53.480;10.004;2023-05-07T01:27:52;11.30;99.90
7206;DHT22;3644;53.480;10.004;2023-05-07T01:30:19;11.20;99.90
7206;DHT22;3644;53.480;10.004;2023-05-07T01:32:56;11.30;99.90
7206;DHT22;3644;53.480;10.004;2023-05-07T01:35:30;11.30;99.90
7206;DHT22;3644;53.480;10.004;2023-05-07T01:37:57;11.30;99.90
7206;DHT22;3644;53.480;10.004;2023-05-07T01:40:24;11.30;99.90
7206;DHT22;3644;53.480;10.004;2023-05-07T01:42:50;11.30;99.90
7206;DHT22;3644;53.480;10.004;2023-05-07T01:45:16;11.30;99.90
7206;DHT22;3644;53.480;10.004;2023-05-07T01:47:42;11.30;99.90
7206;DHT22;3644;53.480;10.004;2023-05-07T01:50:08;11.20;99.90
7206;DHT22;3644;53.480;10.004;2023-05-07T01:52:34;11.20;99.90
7206;DHT22;3644;53.480;10.004;2023-05-07T01:55:00;11.20;99.90
7206;DHT22;3644;53.480;10.004;2023-05-07T01:57:25;11.20;99.90
7206;DHT22;3644;53.480;10.004;2023-05-07T01:59:51;11.30;99.90
7206;DHT22;3644;53.480;10.004;2023-05-07T02:02:16;11.30;99.90
7206;DHT22;3644;53.480;10.004;2023-05-07T02:04:42;11.30;99.90
7206;DHT22;3644;53.480;10.004;2023-05-07T02:07:07;11.20;99.90
7206;DHT22;3644;53.480;10.004;2023-05-07T02:09:33;11.20;99.90
7206;DHT22;3644;53.480;10.004;2023-05-07T02:11:58;11.20;99.90
7206;DHT22;3644;53.480;10.004;2023-05-07T02:14:24;11.20;99.90
7206;DHT22;3644;53.480;10.004;2023-05-07T02:16:51;11.20;99.90
7206;DHT22;3644;53.480;10.004;2023-05-07T02:19:16;11.10;99.90
7206;DHT22;3644;53.480;10.004;2023-05-07T02:21:42;11.20;99.90
7206;DHT22;3644;53.480;10.004;2023-05-07T02:24:07;11.10;99.90
7206;DHT22;3644;53.480;10.004;2023-05-07T02:26:33;11.20;99.90
7206;DHT22;3644;53.480;10.004;2023-05-07T02:28:59;11.10;99.90
7206;DHT22;3644;53.480;10.004;2023-05-07T02:31:25;11.30;99.90
7206;DHT22;3644;53.480;10.004;2023-05-07T02:33:50;11.20;99.90
7206;DHT22;3644;53.480;10.004;2023-05-07T02:36:16;11.20;99.90
7206;DHT22;3644;53.480;10.004;2023-05-07T02:38:41;11.10;99.90
7206;DHT22;3644;53.480;10.004;2023-05-07T02:41:07;11.00;99.90
7206;DHT22;3644;53.480;10.004;2023-05-07T02:43:32;11.00;99.90
7206;DHT22;3644;53.480;10.004;2023-05-07T02:48:28;11.10;99.90
7206;DHT22;3644;53.480;10.004;2023-05-07T02:50:53;11.20;99.90
7206;DHT22;3644;53.480;10.004;2023-05-07T02:53:19;11.30;99.90
7206;DHT22;3644;53.480;10.004;2023-05-07T02:55:44;11.30;99.90
7206;DHT22;3644;53.480;10.004;2023-05-07T02:58:10;11.20;99.90
7206;DHT22;3644;53.480;10.004;2023-05-07T03:00:35;11.30;99.90
7206;DHT22;3644;53.480;10.004;2023-05-07T03:03:01;11.40;99.90
7206;DHT22;3644;53.480;10.004;2023-05-07T03:05:26;11.50;99.90
7206;DHT22;3644;53.480;10.004;2023-05-07T03:07:52;11.30;99.90
7206;DHT22;3644;53.480;10.004;2023-05-07T03:10:17;11.30;99.90
7206;DHT22;3644;53.480;10.004;2023-05-07T03:12:43;11.20;99.90
7206;DHT22;3644;53.480;10.004;2023-05-07T03:15:09;11.30;99.90
7206;DHT22;3644;53.480;10.004;2023-05-07T03:17:36;11.30;99.90
7206;DHT22;3644;53.480;10.004;2023-05-07T03:20:02;11.20;99.90
7206;DHT22;3644;53.480;10.004;2023-05-07T03:22:28;11.40;99.90
7206;DHT22;3644;53.480;10.004;2023-05-07T03:24:53;11.40;99.90
7206;DHT22;3644;53.480;10.004;2023-05-07T03:27:19;11.30;99.90
7206;DHT22;3644;53.480;10.004;2023-05-07T03:29:44;11.30;99.90
7206;DHT22;3644;53.480;10.004;2023-05-07T03:32:10;11.30;99.90
7206;DHT22;3644;53.480;10.004;2023-05-07T03:34:35;11.40;99.90
7206;DHT22;3644;53.480;10.004;2023-05-07T03:37:01;11.30;99.90
7206;DHT22;3644;53.480;10.004;2023-05-07T03:39:26;11.30;99.90
7206;DHT22;3644;53.480;10.004;2023-05-07T03:41:52;11.30;99.90
7206;DHT22;3644;53.480;10.004;2023-05-07T03:44:18;11.40;99.90
7206;DHT22;3644;53.480;10.004;2023-05-07T03:46:43;11.40;99.90
7206;DHT22;3644;53.480;10.004;2023-05-07T03:49:09;11.40;99.90
7206;DHT22;3644;53.480;10.004;2023-05-07T03:51:35;11.40;99.90
7206;DHT22;3644;53.480;10.004;2023-05-07T03:54:01;11.30;99.90
7206;DHT22;3644;53.480;10.004;2023-05-07T03:56:26;11.20;99.90
7206;DHT22;3644;53.480;10.004;2023-05-07T03:58:53;11.20;99.90
7206;DHT22;3644;53.480;10.004;2023-05-07T04:01:19;11.30;99.90
7206;DHT22;3644;53.480;10.004;2023-05-07T04:03:45;11.30;99.90
7206;DHT22;3644;53.480;10.004;2023-05-07T04:06:10;11.20;99.90
7206;DHT22;3644;53.480;10.004;2023-05-07T04:08:36;11.20;99.90
7206;DHT22;3644;53.480;10.004;2023-05-07T04:11:01;11.40;99.90
7206;DHT22;3644;53.480;10.004;2023-05-07T04:13:27;11.30;99.90
7206;DHT22;3644;53.480;10.004;2023-05-07T04:15:54;11.20;99.90
7206;DHT22;3644;53.480;10.004;2023-05-07T04:18:20;11.20;99.90
7206;DHT22;3644;53.480;10.004;2023-05-07T04:20:47;11.40;99.90
7206;DHT22;3644;53.480;10.004;2023-05-07T04:23:12;11.30;99.90
7206;DHT22;3644;53.480;10.004;2023-05-07T04:25:38;11.10;99.90
7206;DHT22;3644;53.480;10.004;2023-05-07T04:28:03;11.30;99.90
7206;DHT22;3644;53.480;10.004;2023-05-07T04:30:29;11.20;99.90
7206;DHT22;3644;53.480;10.004;2023-05-07T04:32:54;11.20;99.90
7206;DHT22;3644;53.480;10.004;2023-05-07T04:35:21;11.20;99.90
7206;DHT22;3644;53.480;10.004;2023-05-07T04:37:47;11.40;99.90
7206;DHT22;3644;53.480;10.004;2023-05-07T04:40:12;11.40;99.90
7206;DHT22;3644;53.480;10.004;2023-05-07T04:42:38;11.30;99.90
7206;DHT22;3644;53.480;10.004;2023-05-07T04:45:04;11.20;99.90
7206;DHT22;3644;53.480;10.004;2023-05-07T04:47:30;11.30;99.90
7206;DHT22;3644;53.480;10.004;2023-05-07T04:49:57;11.40;99.90
7206;DHT22;3644;53.480;10.004;2023-05-07T04:52:22;11.40;99.90
7206;DHT22;3644;53.480;10.004;2023-05-07T04:54:47;11.50;99.90
7206;DHT22;3644;53.480;10.004;2023-05-07T04:57:13;11.50;99.90
7206;DHT22;3644;53.480;10.004;2023-05-07T04:59:39;11.50;99.90
7206;DHT22;3644;53.480;10.004;2023-05-07T05:02:04;11.60;99.90
7206;DHT22;3644;53.480;10.004;2023-05-07T05:04:30;11.70;99.90
7206;DHT22;3644;53.480;10.004;2023-05-07T05:06:56;11.70;99.90
7206;DHT22;3644;53.480;10.004;2023-05-07T05:09:21;11.70;99.90
7206;DHT22;3644;53.480;10.004;2023-05-07T05:11:47;11.60;99.90
7206;DHT22;3644;53.480;10.004;2023-05-07T05:14:12;11.80;99.90
7206;DHT22;3644;53.480;10.004;2023-05-07T05:16:38;11.70;99.90
7206;DHT22;3644;53.480;10.004;2023-05-07T05:19:03;11.70;99.90
7206;DHT22;3644;53.480;10.004;2023-05-07T05:21:29;11.70;99.90
7206;DHT22;3644;53.480;10.004;2023-05-07T05:23:55;11.70;99.90
7206;DHT22;3644;53.480;10.004;2023-05-07T05:26:20;11.70;99.90
7206;DHT22;3644;53.480;10.004;2023-05-07T05:28:49;11.50;99.90
7206;DHT22;3644;53.480;10.004;2023-05-07T05:31:16;11.60;99.90
7206;DHT22;3644;53.480;10.004;2023-05-07T05:33:41;11.70;99.90
7206;DHT22;3644;53.480;10.004;2023-05-07T05:36:09;11.60;99.90
7206;DHT22;3644;53.480;10.004;2023-05-07T05:38:35;11.50;99.90
7206;DHT22;3644;53.480;10.004;2023-05-07T05:41:01;11.50;99.90
7206;DHT22;3644;53.480;10.004;2023-05-07T05:43:26;11.50;99.90
7206;DHT22;3644;53.480;10.004;2023-05-07T05:45:52;11.50;99.90
7206;DHT22;3644;53.480;10.004;2023-05-07T05:48:17;11.50;99.90
7206;DHT22;3644;53.480;10.004;2023-05-07T05:50:43;11.70;99.90
7206;DHT22;3644;53.480;10.004;2023-05-07T05:53:08;11.70;99.90
7206;DHT22;3644;53.480;10.004;2023-05-07T05:55:34;11.70;99.90
7206;DHT22;3644;53.480;10.004;2023-05-07T05:58:02;11.80;99.90
7206;DHT22;3644;53.480;10.004;2023-05-07T06:00:28;11.90;99.90
7206;DHT22;3644;53.480;10.004;2023-05-07T06:02:54;11.90;99.90
7206;DHT22;3644;53.480;10.004;2023-05-07T06:05:20;11.90;99.90
7206;DHT22;3644;53.480;10.004;2023-05-07T06:07:45;12.00;99.90
7206;DHT22;3644;53.480;10.004;2023-05-07T06:10:11;12.10;99.90
7206;DHT22;3644;53.480;10.004;2023-05-07T06:12:36;12.40;99.90
7206;DHT22;3644;53.480;10.004;2023-05-07T06:15:02;12.50;99.90
7206;DHT22;3644;53.480;10.004;2023-05-07T06:17:28;12.60;99.90
7206;DHT22;3644;53.480;10.004;2023-05-07T06:19:53;12.60;99.90
7206;DHT22;3644;53.480;10.004;2023-05-07T06:22:19;12.60;99.90
7206;DHT22;3644;53.480;10.004;2023-05-07T06:24:44;12.50;99.90
7206;DHT22;3644;53.480;10.004;2023-05-07T06:27:10;12.40;99.90
7206;DHT22;3644;53.480;10.004;2023-05-07T06:29:36;12.30;99.90
7206;DHT22;3644;53.480;10.004;2023-05-07T06:32:12;12.30;99.90
7206;DHT22;3644;53.480;10.004;2023-05-07T06:34:39;12.20;99.90
7206;DHT22;3644;53.480;10.004;2023-05-07T06:37:05;12.40;99.90
7206;DHT22;3644;53.480;10.004;2023-05-07T06:39:31;12.30;99.90
7206;DHT22;3644;53.480;10.004;2023-05-07T06:41:56;12.40;99.90
7206;DHT22;3644;53.480;10.004;2023-05-07T06:44:22;12.50;99.90
7206;DHT22;3644;53.480;10.004;2023-05-07T06:46:47;12.50;99.90
7206;DHT22;3644;53.480;10.004;2023-05-07T06:49:14;12.60;99.90
7206;DHT22;3644;53.480;10.004;2023-05-07T06:51:39;12.50;99.90
7206;DHT22;3644;53.480;10.004;2023-05-07T06:54:05;12.40;99.90
7206;DHT22;3644;53.480;10.004;2023-05-07T06:56:31;12.50;99.90
7206;DHT22;3644;53.480;10.004;2023-05-07T06:58:57;12.50;99.90
7206;DHT22;3644;53.480;10.004;2023-05-07T07:01:22;12.40;99.90
7206;DHT22;3644;53.480;10.004;2023-05-07T07:03:48;12.40;99.90
7206;DHT22;3644;53.480;10.004;2023-05-07T07:06:13;12.50;99.90
7206;DHT22;3644;53.480;10.004;2023-05-07T07:08:39;12.50;99.90
7206;DHT22;3644;53.480;10.004;2023-05-07T07:11:06;12.50;99.90
7206;DHT22;3644;53.480;10.004;2023-05-07T07:13:31;12.60;99.90
7206;DHT22;3644;53.480;10.004;2023-05-07T07:15:57;12.70;99.90
7206;DHT22;3644;53.480;10.004;2023-05-07T07:18:22;12.70;99.90
7206;DHT22;3644;53.480;10.004;2023-05-07T07:20:48;12.70;99.90
7206;DHT22;3644;53.480;10.004;2023-05-07T07:23:13;12.70;99.90
7206;DHT22;3644;53.480;10.004;2023-05-07T07:25:39;12.80;99.90
7206;DHT22;3644;53.480;10.004;2023-05-07T07:28:05;12.80;99.90
7206;DHT22;3644;53.480;10.004;2023-05-07T07:30:31;12.80;99.90
7206;DHT22;3644;53.480;10.004;2023-05-07T07:32:56;12.90;99.90
7206;DHT22;3644;53.480;10.004;2023-05-07T07:35:30;13.10;99.90
7206;DHT22;3644;53.480;10.004;2023-05-07T07:37:56;12.90;99.90
7206;DHT22;3644;53.480;10.004;2023-05-07T07:40:21;13.10;99.90
7206;DHT22;3644;53.480;10.004;2023-05-07T07:42:47;13.10;99.90
7206;DHT22;3644;53.480;10.004;2023-05-07T07:45:13;13.10;99.90
7206;DHT22;3644;53.480;10.004;2023-05-07T07:47:39;13.20;99.90
7206;DHT22;3644;53.480;10.004;2023-05-07T07:50:06;13.30;99.90
7206;DHT22;3644;53.480;10.004;2023-05-07T07:52:31;13.20;99.90
7206;DHT22;3644;53.480;10.004;2023-05-07T07:54:57;13.20;99.90
7206;DHT22;3644;53.480;10.004;2023-05-07T07:57:22;13.20;99.90
7206;DHT22;3644;53.480;10.004;2023-05-07T07:59:48;13.10;99.90
7206;DHT22;3644;53.480;10.004;2023-05-07T08:02:14;13.30;99.90
7206;DHT22;3644;53.480;10.004;2023-05-07T08:04:39;13.30;99.90
7206;DHT22;3644;53.480;10.004;2023-05-07T08:07:05;13.20;99.90
7206;DHT22;3644;53.480;10.004;2023-05-07T08:09:31;13.30;99.90
7206;DHT22;3644;53.480;10.004;2023-05-07T08:11:57;13.30;99.90
7206;DHT22;3644;53.480;10.004;2023-05-07T08:14:22;13.30;99.90
7206;DHT22;3644;53.480;10.004;2023-05-07T08:16:48;13.40;99.90
7206;DHT22;3644;53.480;10.004;2023-05-07T08:19:13;13.40;99.90
7206;DHT22;3644;53.480;10.004;2023-05-07T08:21:39;13.40;99.90
7206;DHT22;3644;53.480;10.004;2023-05-07T08:24:06;13.50;99.90
7206;DHT22;3644;53.480;10.004;2023-05-07T08:26:31;13.40;99.90
7206;DHT22;3644;53.480;10.004;2023-05-07T08:28:57;13.40;99.90
7206;DHT22;3644;53.480;10.004;2023-05-07T08:31:22;13.40;99.90
7206;DHT22;3644;53.480;10.004;2023-05-07T08:33:48;13.40;99.90
7206;DHT22;3644;53.480;10.004;2023-05-07T08:36:13;13.40;99.90
7206;DHT22;3644;53.480;10.004;2023-05-07T08:38:39;13.40;99.90
7206;DHT22;3644;53.480;10.004;2023-05-07T08:41:06;13.40;99.90
7206;DHT22;3644;53.480;10.004;2023-05-07T08:43:33;13.50;99.90
7206;DHT22;3644;53.480;10.004;2023-05-07T08:46:01;13.80;99.90
7206;DHT22;3644;53.480;10.004;2023-05-07T08:48:29;13.70;99.90
7206;DHT22;3644;53.480;10.004;2023-05-07T08:50:55;13.80;99.90
7206;DHT22;3644;53.480;10.004;2023-05-07T08:53:21;13.80;99.90
7206;DHT22;3644;53.480;10.004;2023-05-07T08:55:47;13.90;99.90
7206;DHT22;3644;53.480;10.004;2023-05-07T08:58:13;14.00;99.90
7206;DHT22;3644;53.480;10.004;2023-05-07T09:00:40;14.00;99.90
7206;DHT22;3644;53.480;10.004;2023-05-07T09:03:07;14.10;99.90
7206;DHT22;3644;53.480;10.004;2023-05-07T09:05:32;14.00;99.90
7206;DHT22;3644;53.480;10.004;2023-05-07T09:08:02;14.20;99.90
7206;DHT22;3644;53.480;10.004;2023-05-07T09:10:29;14.10;99.90
7206;DHT22;3644;53.480;10.004;2023-05-07T09:12:55;13.90;99.90
7206;DHT22;3644;53.480;10.004;2023-05-07T09:15:20;14.10;99.90
7206;DHT22;3644;53.480;10.004;2023-05-07T09:17:46;14.20;99.90
7206;DHT22;3644;53.480;10.004;2023-05-07T09:20:11;14.30;99.90
7206;DHT22;3644;53.480;10.004;2023-05-07T09:22:37;14.30;99.90
7206;DHT22;3644;53.480;10.004;2023-05-07T09:25:04;14.50;99.90
7206;DHT22;3644;53.480;10.004;2023-05-07T09:27:30;14.50;99.90
7206;DHT22;3644;53.480;10.004;2023-05-07T09:29:55;14.60;99.90
7206;DHT22;3644;53.480;10.004;2023-05-07T09:32:21;14.60;99.90
7206;DHT22;3644;53.480;10.004;2023-05-07T09:34:47;14.50;99.90
7206;DHT22;3644;53.480;10.004;2023-05-07T09:37:13;14.60;99.90
7206;DHT22;3644;53.480;10.004;2023-05-07T09:39:43;14.50;99.90
7206;DHT22;3644;53.480;10.004;2023-05-07T09:42:10;14.60;99.90
7206;DHT22;3644;53.480;10.004;2023-05-07T09:44:37;14.50;99.90
7206;DHT22;3644;53.480;10.004;2023-05-07T09:47:07;14.60;99.90
7206;DHT22;3644;53.480;10.004;2023-05-07T09:49:37;14.50;99.90
7206;DHT22;3644;53.480;10.004;2023-05-07T09:52:06;14.40;99.90
7206;DHT22;3644;53.480;10.004;2023-05-07T09:54:35;14.60;99.90
7206;DHT22;3644;53.480;10.004;2023-05-07T09:57:04;14.60;99.90
7206;DHT22;3644;53.480;10.004;2023-05-07T09:59:32;14.60;99.90
7206;DHT22;3644;53.480;10.004;2023-05-07T10:01:59;14.60;99.90
7206;DHT22;3644;53.480;10.004;2023-05-07T10:04:26;14.70;99.90
7206;DHT22;3644;53.480;10.004;2023-05-07T10:06:52;14.70;99.90
7206;DHT22;3644;53.480;10.004;2023-05-07T10:09:19;14.60;99.90
7206;DHT22;3644;53.480;10.004;2023-05-07T10:11:45;14.60;99.90
7206;DHT22;3644;53.480;10.004;2023-05-07T10:14:11;14.80;99.90
7206;DHT22;3644;53.480;10.004;2023-05-07T10:16:37;15.00;99.90
7206;DHT22;3644;53.480;10.004;2023-05-07T10:19:03;15.00;99.90
7206;DHT22;3644;53.480;10.004;2023-05-07T10:21:30;15.00;99.90
7206;DHT22;3644;53.480;10.004;2023-05-07T10:24:16;15.10;99.90
7206;DHT22;3644;53.480;10.004;2023-05-07T10:26:48;15.10;99.90
7206;DHT22;3644;53.480;10.004;2023-05-07T10:29:28;15.00;99.90
7206;DHT22;3644;53.480;10.004;2023-05-07T10:34:47;15.20;99.90
7206;DHT22;3644;53.480;10.004;2023-05-07T10:37:13;15.20;99.90
7206;DHT22;3644;53.480;10.004;2023-05-07T10:39:39;15.20;99.90
7206;DHT22;3644;53.480;10.004;2023-05-07T10:42:08;15.30;99.90
7206;DHT22;3644;53.480;10.004;2023-05-07T10:44:34;15.30;99.90
7206;DHT22;3644;53.480;10.004;2023-05-07T10:47:08;15.40;99.90
7206;DHT22;3644;53.480;10.004;2023-05-07T10:52:16;15.50;99.90
7206;DHT22;3644;53.480;10.004;2023-05-07T10:54:43;15.70;99.90
7206;DHT22;3644;53.480;10.004;2023-05-07T10:57:36;15.60;99.90
7206;DHT22;3644;53.480;10.004;2023-05-07T11:05:24;16.00;99.90
7206;DHT22;3644;53.480;10.004;2023-05-07T11:08:03;16.30;99.90
7206;DHT22;3644;53.480;10.004;2023-05-07T11:10:49;16.40;99.90
7206;DHT22;3644;53.480;10.004;2023-05-07T11:13:15;16.30;99.90
7206;DHT22;3644;53.480;10.004;2023-05-07T11:15:43;16.60;99.90
7206;DHT22;3644;53.480;10.004;2023-05-07T11:18:11;16.40;99.90
7206;DHT22;3644;53.480;10.004;2023-05-07T11:20:56;16.50;99.90
7206;DHT22;3644;53.480;10.004;2023-05-07T11:26:14;16.60;99.90
7206;DHT22;3644;53.480;10.004;2023-05-07T11:28:42;16.80;99.90
7206;DHT22;3644;53.480;10.004;2023-05-07T11:31:08;17.00;99.90
7206;DHT22;3644;53.480;10.004;2023-05-07T11:33:34;16.90;99.90
7206;DHT22;3644;53.480;10.004;2023-05-07T11:36:02;16.80;99.90
7206;DHT22;3644;53.480;10.004;2023-05-07T11:38:35;16.80;99.90
7206;DHT22;3644;53.480;10.004;2023-05-07T11:41:02;16.90;99.90
7206;DHT22;3644;53.480;10.004;2023-05-07T11:43:30;16.90;99.90
7206;DHT22;3644;53.480;10.004;2023-05-07T11:46:08;17.00;99.90
7206;DHT22;3644;53.480;10.004;2023-05-07T11:48:34;17.20;99.90
7206;DHT22;3644;53.480;10.004;2023-05-07T11:53:27;17.30;99.90
7206;DHT22;3644;53.480;10.004;2023-05-07T11:55:56;17.30;99.90
7206;DHT22;3644;53.480;10.004;2023-05-07T11:58:24;17.20;99.90
7206;DHT22;3644;53.480;10.004;2023-05-07T12:00:53;17.10;99.90
7206;DHT22;3644;53.480;10.004;2023-05-07T12:03:20;17.10;99.90
7206;DHT22;3644;53.480;10.004;2023-05-07T12:05:46;17.20;99.90
7206;DHT22;3644;53.480;10.004;2023-05-07T12:08:16;17.30;99.90
7206;DHT22;3644;53.480;10.004;2023-05-07T12:10:43;17.20;99.90
7206;DHT22;3644;53.480;10.004;2023-05-07T12:13:19;17.40;99.90
7206;DHT22;3644;53.480;10.004;2023-05-07T12:15:45;17.40;99.90
7206;DHT22;3644;53.480;10.004;2023-05-07T12:18:11;17.40;99.90
7206;DHT22;3644;53.480;10.004;2023-05-07T12:20:38;17.50;99.90
7206;DHT22;3644;53.480;10.004;2023-05-07T12:23:04;17.90;99.90
7206;DHT22;3644;53.480;10.004;2023-05-07T12:25:31;17.80;99.90
7206;DHT22;3644;53.480;10.004;2023-05-07T12:27:57;17.70;99.90
7206;DHT22;3644;53.480;10.004;2023-05-07T12:30:24;17.50;99.90
7206;DHT22;3644;53.480;10.004;2023-05-07T12:32:53;17.70;99.90
7206;DHT22;3644;53.480;10.004;2023-05-07T12:35:29;17.90;99.90
7206;DHT22;3644;53.480;10.004;2023-05-07T12:37:59;18.10;99.90
7206;DHT22;3644;53.480;10.004;2023-05-07T12:40:37;17.80;99.90
7206;DHT22;3644;53.480;10.004;2023-05-07T12:43:02;17.70;99.90
7206;DHT22;3644;53.480;10.004;2023-05-07T12:45:28;17.90;99.90
7206;DHT22;3644;53.480;10.004;2023-05-07T12:47:53;17.90;99.90
7206;DHT22;3644;53.480;10.004;2023-05-07T12:50:19;18.00;99.90
7206;DHT22;3644;53.480;10.004;2023-05-07T12:52:47;18.20;99.90
7206;DHT22;3644;53.480;10.004;2023-05-07T12:55:16;18.50;99.90
7206;DHT22;3644;53.480;10.004;2023-05-07T12:57:45;18.60;99.90
7206;DHT22;3644;53.480;10.004;2023-05-07T13:00:13;18.50;99.90
7206;DHT22;3644;53.480;10.004;2023-05-07T13:02:40;18.50;99.90
7206;DHT22;3644;53.480;10.004;2023-05-07T13:05:06;18.50;99.90
7206;DHT22;3644;53.480;10.004;2023-05-07T13:07:32;18.60;99.90
7206;DHT22;3644;53.480;10.004;2023-05-07T13:09:57;18.70;99.90
7206;DHT22;3644;53.480;10.004;2023-05-07T13:12:23;18.80;99.90
7206;DHT22;3644;53.480;10.004;2023-05-07T13:14:48;18.90;99.90
7206;DHT22;3644;53.480;10.004;2023-05-07T13:17:14;18.80;99.90
7206;DHT22;3644;53.480;10.004;2023-05-07T13:19:39;19.00;99.90
7206;DHT22;3644;53.480;10.004;2023-05-07T13:22:05;19.00;99.90
7206;DHT22;3644;53.480;10.004;2023-05-07T13:24:30;19.10;99.90
7206;DHT22;3644;53.480;10.004;2023-05-07T13:26:56;19.20;99.90
7206;DHT22;3644;53.480;10.004;2023-05-07T13:29:22;19.10;99.90
7206;DHT22;3644;53.480;10.004;2023-05-07T13:31:58;19.30;99.90
7206;DHT22;3644;53.480;10.004;2023-05-07T13:34:23;19.40;99.90
7206;DHT22;3644;53.480;10.004;2023-05-07T13:36:49;19.30;99.90
7206;DHT22;3644;53.480;10.004;2023-05-07T13:39:14;19.10;99.90
7206;DHT22;3644;53.480;10.004;2023-05-07T13:41:40;19.30;99.90
7206;DHT22;3644;53.480;10.004;2023-05-07T13:44:06;19.40;99.90
7206;DHT22;3644;53.480;10.004;2023-05-07T13:46:31;19.70;99.90
7206;DHT22;3644;53.480;10.004;2023-05-07T13:48:57;19.60;99.90
7206;DHT22;3644;53.480;10.004;2023-05-07T13:51:23;19.60;99.90
7206;DHT22;3644;53.480;10.004;2023-05-07T13:53:48;19.40;99.90
7206;DHT22;3644;53.480;10.004;2023-05-07T13:56:14;19.40;99.90
7206;DHT22;3644;53.480;10.004;2023-05-07T13:58:40;19.50;99.90
7206;DHT22;3644;53.480;10.004;2023-05-07T14:01:06;19.80;99.90
7206;DHT22;3644;53.480;10.004;2023-05-07T14:03:31;19.90;99.90
7206;DHT22;3644;53.480;10.004;2023-05-07T14:05:59;19.80;99.90
7206;DHT22;3644;53.480;10.004;2023-05-07T14:08:26;19.90;99.90
7206;DHT22;3644;53.480;10.004;2023-05-07T14:10:52;19.80;99.90
7206;DHT22;3644;53.480;10.004;2023-05-07T14:13:18;19.80;99.90
7206;DHT22;3644;53.480;10.004;2023-05-07T14:15:43;19.60;99.90
7206;DHT22;3644;53.480;10.004;2023-05-07T14:18:13;19.40;99.90
7206;DHT22;3644;53.480;10.004;2023-05-07T14:20:39;19.40;99.90
7206;DHT22;3644;53.480;10.004;2023-05-07T14:23:04;19.30;99.90
7206;DHT22;3644;53.480;10.004;2023-05-07T14:25:30;19.60;99.90
7206;DHT22;3644;53.480;10.004;2023-05-07T14:27:55;19.50;99.90
7206;DHT22;3644;53.480;10.004;2023-05-07T14:30:21;19.40;99.90
7206;DHT22;3644;53.480;10.004;2023-05-07T14:32:49;19.40;99.90
7206;DHT22;3644;53.480;10.004;2023-05-07T14:35:15;19.30;99.90
7206;DHT22;3644;53.480;10.004;2023-05-07T14:37:41;19.20;99.90
7206;DHT22;3644;53.480;10.004;2023-05-07T14:40:08;19.50;99.90
7206;DHT22;3644;53.480;10.004;2023-05-07T14:42:34;19.60;99.90
7206;DHT22;3644;53.480;10.004;2023-05-07T14:44:59;19.80;99.90
7206;DHT22;3644;53.480;10.004;2023-05-07T14:47:25;19.80;99.90
7206;DHT22;3644;53.480;10.004;2023-05-07T14:49:50;20.00;99.90
7206;DHT22;3644;53.480;10.004;2023-05-07T14:52:16;20.10;99.90
7206;DHT22;3644;53.480;10.004;2023-05-07T14:54:42;20.20;99.90
7206;DHT22;3644;53.480;10.004;2023-05-07T14:57:09;20.30;99.90
7206;DHT22;3644;53.480;10.004;2023-05-07T14:59:35;20.40;99.90
7206;DHT22;3644;53.480;10.004;2023-05-07T15:02:01;20.80;99.90
7206;DHT22;3644;53.480;10.004;2023-05-07T15:04:26;20.70;99.90
7206;DHT22;3644;53.480;10.004;2023-05-07T15:06:52;20.70;99.90
7206;DHT22;3644;53.480;10.004;2023-05-07T15:09:19;20.70;99.90
7206;DHT22;3644;53.480;10.004;2023-05-07T15:11:45;20.80;99.90
7206;DHT22;3644;53.480;10.004;2023-05-07T15:14:10;21.20;99.90
7206;DHT22;3644;53.480;10.004;2023-05-07T15:16:35;21.40;99.90
7206;DHT22;3644;53.480;10.004;2023-05-07T15:19:01;21.50;99.90
7206;DHT22;3644;53.480;10.004;2023-05-07T15:21:27;21.40;99.90
7206;DHT22;3644;53.480;10.004;2023-05-07T15:23:52;21.30;99.90
7206;DHT22;3644;53.480;10.004;2023-05-07T15:26:18;21.00;99.90
7206;DHT22;3644;53.480;10.004;2023-05-07T15:28:43;20.60;99.90
7206;DHT22;3644;53.480;10.004;2023-05-07T15:31:09;20.50;99.90
7206;DHT22;3644;53.480;10.004;2023-05-07T15:33:34;20.20;99.90
7206;DHT22;3644;53.480;10.004;2023-05-07T15:36:00;20.20;99.90
7206;DHT22;3644;53.480;10.004;2023-05-07T15:38:26;20.10;99.90
7206;DHT22;3644;53.480;10.004;2023-05-07T15:40:52;20.10;99.90
7206;DHT22;3644;53.480;10.004;2023-05-07T15:43:17;20.00;99.90
7206;DHT22;3644;53.480;10.004;2023-05-07T15:45:43;20.10;99.90
7206;DHT22;3644;53.480;10.004;2023-05-07T15:48:09;19.80;99.90
7206;DHT22;3644;53.480;10.004;2023-05-07T15:50:35;19.80;99.90
7206;DHT22;3644;53.480;10.004;2023-05-07T15:53:01;19.90;99.90
7206;DHT22;3644;53.480;10.004;2023-05-07T15:55:28;19.80;99.90
7206;DHT22;3644;53.480;10.004;2023-05-07T15:57:54;19.60;99.90